createdAt,value
2022-10-18T00:00:27.212Z,35.71
2022-10-18T00:01:27.188Z,35.51
2022-10-18T00:02:27.286Z,35.71
2022-10-18T00:03:27.188Z,35.13
2022-10-18T00:04:27.190Z,35.22
2022-10-18T00:05:27.187Z,35.71
2022-10-18T00:06:27.187Z,35.13
2022-10-18T00:07:27.328Z,35.61
2022-10-18T00:08:27.188Z,35.32
2022-10-18T00:09:27.188Z,35.22
2022-10-18T00:10:27.188Z,35.61
2022-10-18T00:11:27.186Z,35.51
2022-10-18T00:12:27.189Z,35.22
2022-10-18T00:13:27.187Z,35.51
2022-10-18T00:14:27.188Z,35.51
2022-10-18T00:15:27.187Z,35.32
2022-10-18T00:16:27.210Z,35.71
2022-10-18T00:17:27.201Z,35.32
2022-10-18T00:18:27.195Z,35.22
2022-10-18T00:19:29.249Z,35.41
2022-10-18T00:20:27.193Z,35.22
2022-10-18T00:21:27.188Z,35.61
2022-10-18T00:22:27.190Z,35.61
2022-10-18T00:23:27.187Z,35.32
2022-10-18T00:24:27.188Z,35.61
2022-10-18T00:25:27.188Z,35.61
2022-10-18T00:26:27.188Z,35.80
2022-10-18T00:27:27.187Z,35.41
2022-10-18T00:28:27.245Z,35.51
2022-10-18T00:29:27.189Z,35.22
2022-10-18T00:30:27.190Z,35.22
2022-10-18T00:31:27.189Z,35.80
2022-10-18T00:32:27.212Z,35.13
2022-10-18T00:33:27.188Z,35.41
2022-10-18T00:34:27.191Z,35.51
2022-10-18T00:35:27.187Z,35.51
2022-10-18T00:36:27.190Z,35.61
2022-10-18T00:37:27.188Z,35.22
2022-10-18T00:38:27.190Z,35.32
2022-10-18T00:39:27.190Z,35.22
2022-10-18T00:40:27.190Z,35.22
2022-10-18T00:41:27.192Z,35.32
2022-10-18T00:42:27.188Z,35.80
2022-10-18T00:43:27.188Z,35.80
2022-10-18T00:44:27.190Z,35.13
2022-10-18T00:45:27.188Z,35.22
2022-10-18T00:46:27.189Z,35.61
2022-10-18T00:47:27.192Z,35.61
2022-10-18T00:48:27.212Z,35.61
2022-10-18T00:49:27.190Z,35.71
2022-10-18T00:50:27.191Z,35.13
2022-10-18T00:51:27.188Z,35.51
2022-10-18T00:52:27.217Z,35.41
2022-10-18T00:53:27.190Z,35.51
2022-10-18T00:54:27.190Z,35.32
2022-10-18T00:55:27.189Z,35.22
2022-10-18T00:56:27.190Z,35.32
2022-10-18T00:57:27.188Z,35.22
2022-10-18T00:58:27.190Z,35.22
2022-10-18T00:59:27.189Z,35.32
2022-10-18T01:00:27.191Z,35.22
2022-10-18T01:01:28.364Z,35.32
2022-10-18T01:02:27.189Z,35.32
2022-10-18T01:03:27.189Z,35.22
2022-10-18T01:04:27.212Z,35.22
2022-10-18T01:05:27.197Z,35.13
2022-10-18T01:06:27.192Z,34.93
2022-10-18T01:07:27.190Z,35.03
2022-10-18T01:08:27.190Z,35.13
2022-10-18T01:09:27.189Z,35.13
2022-10-18T01:10:27.191Z,35.03
2022-10-18T01:11:27.190Z,35.32
2022-10-18T01:12:27.191Z,35.32
2022-10-18T01:13:27.189Z,35.22
2022-10-18T01:14:27.190Z,35.22
2022-10-18T01:15:27.190Z,35.22
2022-10-18T01:16:27.196Z,35.32
2022-10-18T01:17:27.190Z,35.32
2022-10-18T01:18:27.190Z,35.22
2022-10-18T01:19:27.190Z,35.41
2022-10-18T01:20:27.215Z,35.32
2022-10-18T01:21:27.191Z,35.22
2022-10-18T01:22:27.190Z,35.32
2022-10-18T01:23:27.189Z,35.32
2022-10-18T01:24:27.191Z,35.32
2022-10-18T01:25:27.191Z,35.22
2022-10-18T01:26:27.191Z,35.32
2022-10-18T01:27:27.273Z,35.32
2022-10-18T01:28:27.230Z,35.22
2022-10-18T01:29:27.190Z,35.13
2022-10-18T01:30:27.191Z,34.93
2022-10-18T01:31:27.192Z,35.03
2022-10-18T01:32:27.190Z,35.13
2022-10-18T01:33:27.190Z,34.93
2022-10-18T01:34:27.190Z,34.93
2022-10-18T01:35:27.190Z,35.41
2022-10-18T01:36:27.215Z,35.03
2022-10-18T01:37:27.191Z,35.03
2022-10-18T01:38:27.191Z,35.41
2022-10-18T01:39:27.190Z,34.83
2022-10-18T01:40:27.191Z,34.83
2022-10-18T01:41:27.190Z,35.32
2022-10-18T01:42:27.192Z,35.22
2022-10-18T01:43:27.190Z,34.93
2022-10-18T01:44:27.193Z,35.22
2022-10-18T01:45:27.190Z,34.93
2022-10-18T01:46:27.191Z,35.22
2022-10-18T01:47:27.191Z,35.13
2022-10-18T01:48:27.192Z,35.03
2022-10-18T01:49:27.191Z,34.83
2022-10-18T01:50:27.191Z,35.13
2022-10-18T01:51:27.191Z,34.74
2022-10-18T01:52:27.223Z,35.13
2022-10-18T01:53:27.191Z,35.13
2022-10-18T01:54:27.191Z,35.13
2022-10-18T01:55:27.192Z,35.32
2022-10-18T01:56:27.191Z,35.13
2022-10-18T01:57:27.192Z,35.03
2022-10-18T01:58:27.192Z,35.03
2022-10-18T01:59:27.190Z,35.22
2022-10-18T02:00:27.194Z,34.64
2022-10-18T02:01:27.191Z,35.13
2022-10-18T02:02:27.196Z,35.13
2022-10-18T02:03:27.191Z,35.13
2022-10-18T02:04:27.195Z,34.64
2022-10-18T02:05:27.190Z,34.83
2022-10-18T02:06:27.194Z,34.93
2022-10-18T02:07:27.191Z,34.93
2022-10-18T02:08:27.215Z,34.74
2022-10-18T02:09:27.192Z,34.83
2022-10-18T02:10:27.191Z,34.83
2022-10-18T02:11:27.194Z,34.93
2022-10-18T02:12:27.377Z,34.93
2022-10-18T02:13:27.191Z,34.83
2022-10-18T02:14:27.192Z,34.93
2022-10-18T02:15:27.191Z,34.83
2022-10-18T02:16:27.192Z,34.83
2022-10-18T02:17:27.191Z,34.93
2022-10-18T02:18:27.192Z,35.03
2022-10-18T02:19:27.195Z,34.93
2022-10-18T02:20:27.193Z,34.83
2022-10-18T02:21:27.194Z,34.93
2022-10-18T02:22:27.192Z,34.93
2022-10-18T02:23:27.193Z,34.93
2022-10-18T02:24:27.215Z,34.93
2022-10-18T02:25:27.192Z,34.83
2022-10-18T02:26:27.191Z,34.93
2022-10-18T02:27:27.195Z,34.93
2022-10-18T02:28:27.194Z,34.74
2022-10-18T02:29:27.193Z,34.93
2022-10-18T02:30:27.192Z,34.93
2022-10-18T02:31:27.194Z,34.64
2022-10-18T02:32:27.194Z,34.93
2022-10-18T02:33:27.192Z,34.93
2022-10-18T02:34:27.191Z,35.03
2022-10-18T02:35:27.192Z,34.93
2022-10-18T02:36:27.192Z,34.83
2022-10-18T02:38:27.192Z,34.83
2022-10-18T02:39:27.192Z,34.74
2022-10-18T02:40:27.217Z,34.74
2022-10-18T02:41:27.194Z,34.93
2022-10-18T02:42:27.190Z,34.93
2022-10-18T02:43:27.191Z,34.83
2022-10-18T02:44:27.192Z,34.83
2022-10-18T02:45:27.344Z,34.64
2022-10-18T02:47:27.192Z,34.64
2022-10-18T02:48:27.191Z,34.83
2022-10-18T02:49:27.194Z,34.93
2022-10-18T02:50:27.192Z,34.74
2022-10-18T02:51:27.194Z,35.03
2022-10-18T02:52:27.193Z,34.74
2022-10-18T02:53:27.192Z,34.74
2022-10-18T02:54:27.199Z,35.03
2022-10-18T02:55:30.277Z,35.03
2022-10-18T02:56:27.216Z,35.03
2022-10-18T02:57:27.197Z,34.93
2022-10-18T02:58:27.194Z,34.83
2022-10-18T02:59:27.194Z,34.93
2022-10-18T03:00:27.194Z,34.64
2022-10-18T03:01:27.238Z,34.64
2022-10-18T03:02:27.192Z,35.03
2022-10-18T03:03:27.192Z,34.93
2022-10-18T03:05:27.195Z,34.93
2022-10-18T03:06:27.191Z,35.03
2022-10-18T03:07:27.193Z,34.93
2022-10-18T03:08:27.191Z,34.93
2022-10-18T03:09:27.195Z,34.83
2022-10-18T03:10:27.191Z,34.93
2022-10-18T03:11:27.193Z,34.83
2022-10-18T03:12:27.219Z,35.03
2022-10-18T03:13:27.228Z,34.83
2022-10-18T03:14:27.192Z,34.93
2022-10-18T03:15:27.193Z,34.93
2022-10-18T03:16:27.193Z,34.83
2022-10-18T03:17:27.194Z,35.03
2022-10-18T03:18:27.192Z,34.93
2022-10-18T03:19:27.192Z,35.03
2022-10-18T03:20:27.191Z,34.93
2022-10-18T03:21:27.194Z,34.93
2022-10-18T03:23:27.194Z,35.13
2022-10-18T03:24:27.192Z,34.93
2022-10-18T03:25:27.193Z,34.93
2022-10-18T03:26:27.192Z,35.03
2022-10-18T03:27:27.194Z,35.13
2022-10-18T03:28:27.252Z,35.13
2022-10-18T03:29:27.196Z,35.13
2022-10-18T03:30:27.191Z,35.13
2022-10-18T03:31:27.231Z,34.74
2022-10-18T03:32:27.193Z,34.83
2022-10-18T03:33:27.197Z,34.74
2022-10-18T03:34:27.192Z,34.74
2022-10-18T03:35:27.195Z,34.74
2022-10-18T03:36:27.193Z,34.64
2022-10-18T03:37:27.194Z,34.74
2022-10-18T03:38:27.199Z,34.83
2022-10-18T03:39:27.194Z,34.64
2022-10-18T03:40:27.227Z,34.64
2022-10-18T03:41:27.193Z,34.83
2022-10-18T03:42:27.192Z,34.83
2022-10-18T03:43:27.195Z,34.74
2022-10-18T03:44:27.217Z,34.64
2022-10-18T03:45:30.419Z,34.54
2022-10-18T03:46:27.193Z,34.83
2022-10-18T03:47:27.193Z,34.93
2022-10-18T03:48:27.193Z,34.83
2022-10-18T03:49:27.240Z,34.93
2022-10-18T03:50:27.191Z,34.35
2022-10-18T03:51:27.193Z,34.44
2022-10-18T03:52:27.192Z,34.54
2022-10-18T03:53:27.193Z,34.44
2022-10-18T03:54:27.193Z,34.54
2022-10-18T03:55:27.194Z,34.44
2022-10-18T03:56:27.193Z,34.44
2022-10-18T03:57:27.193Z,34.44
2022-10-18T03:58:27.245Z,34.54
2022-10-18T03:59:27.194Z,34.35
2022-10-18T04:00:27.216Z,34.44
2022-10-18T04:01:27.208Z,34.35
2022-10-18T04:02:27.194Z,34.25
2022-10-18T04:03:27.193Z,34.44
2022-10-18T04:04:27.193Z,34.44
2022-10-18T04:05:27.195Z,34.44
2022-10-18T04:06:27.193Z,34.35
2022-10-18T04:07:27.263Z,34.25
2022-10-18T04:08:27.192Z,34.44
2022-10-18T04:09:27.194Z,34.44
2022-10-18T04:10:27.193Z,34.44
2022-10-18T04:11:27.193Z,34.44
2022-10-18T04:12:27.193Z,34.35
2022-10-18T04:13:27.193Z,34.44
2022-10-18T04:14:27.192Z,34.35
2022-10-18T04:15:27.194Z,34.25
2022-10-18T04:16:27.266Z,34.35
2022-10-18T04:17:27.195Z,34.16
2022-10-18T04:18:27.191Z,34.16
2022-10-18T04:19:27.193Z,34.35
2022-10-18T04:20:27.192Z,34.06
2022-10-18T04:21:27.193Z,34.16
2022-10-18T04:23:27.194Z,34.16
2022-10-18T04:24:27.193Z,34.16
2022-10-18T04:25:27.192Z,34.16
2022-10-18T04:26:27.193Z,34.35
2022-10-18T04:27:27.193Z,34.54
2022-10-18T04:28:27.218Z,34.35
2022-10-18T04:29:27.193Z,34.35
2022-10-18T04:30:27.193Z,34.35
2022-10-18T04:31:27.191Z,34.25
2022-10-18T04:32:27.195Z,34.16
2022-10-18T04:33:27.193Z,34.35
2022-10-18T04:34:27.214Z,34.16
2022-10-18T04:35:27.192Z,34.16
2022-10-18T04:36:27.194Z,34.35
2022-10-18T04:37:27.193Z,34.16
2022-10-18T04:38:27.194Z,34.35
2022-10-18T04:39:27.192Z,34.35
2022-10-18T04:40:27.194Z,34.16
2022-10-18T04:41:27.193Z,34.25
2022-10-18T04:42:27.193Z,34.25
2022-10-18T04:43:27.192Z,34.25
2022-10-18T04:44:27.193Z,34.25
2022-10-18T04:45:27.342Z,34.16
2022-10-18T04:46:27.192Z,34.16
2022-10-18T04:47:27.193Z,34.06
2022-10-18T04:48:27.195Z,34.25
2022-10-18T04:49:27.194Z,34.16
2022-10-18T04:50:27.215Z,34.35
2022-10-18T04:51:27.194Z,34.35
2022-10-18T04:52:27.196Z,34.25
2022-10-18T04:53:27.193Z,34.35
2022-10-18T04:54:28.629Z,34.16
2022-10-18T04:55:27.194Z,34.25
2022-10-18T04:56:27.192Z,34.35
2022-10-18T04:57:27.192Z,34.16
2022-10-18T04:58:27.193Z,34.16
2022-10-18T04:59:27.197Z,34.16
2022-10-18T05:00:27.193Z,34.16
2022-10-18T05:01:27.228Z,34.16
2022-10-18T05:02:27.194Z,34.25
2022-10-18T05:03:27.192Z,34.25
2022-10-18T05:04:27.196Z,34.25
2022-10-18T05:05:49.764Z,34.25
2022-10-18T05:06:27.215Z,34.16
2022-10-18T05:07:27.192Z,34.16
2022-10-18T05:08:27.194Z,34.16
2022-10-18T05:09:27.193Z,34.25
2022-10-18T05:10:27.193Z,34.06
2022-10-18T05:11:27.199Z,34.25
2022-10-18T05:12:27.192Z,34.35
2022-10-18T05:13:27.192Z,34.35
2022-10-18T05:14:27.194Z,34.16
2022-10-18T05:15:27.194Z,34.16
2022-10-18T05:16:27.193Z,34.35
2022-10-18T05:17:27.192Z,34.25
2022-10-18T05:18:27.195Z,34.16
2022-10-18T05:19:27.193Z,34.35
2022-10-18T05:20:27.193Z,34.35
2022-10-18T05:21:27.193Z,34.25
2022-10-18T05:22:27.214Z,34.16
2022-10-18T05:23:27.192Z,34.06
2022-10-18T05:24:27.816Z,34.25
2022-10-18T05:25:27.193Z,34.25
2022-10-18T05:26:27.192Z,34.25
2022-10-18T05:27:27.193Z,34.16
2022-10-18T05:28:39.145Z,34.16
2022-10-18T05:30:27.195Z,34.16
2022-10-18T05:31:27.193Z,34.35
2022-10-18T05:32:27.194Z,34.35
2022-10-18T05:33:27.194Z,34.06
2022-10-18T05:34:27.192Z,34.25
2022-10-18T05:35:27.193Z,34.25
2022-10-18T05:36:27.194Z,33.96
2022-10-18T05:37:28.375Z,33.96
2022-10-18T05:38:27.291Z,33.96
2022-10-18T05:39:27.194Z,33.86
2022-10-18T05:40:27.194Z,33.96
2022-10-18T05:41:27.193Z,34.06
2022-10-18T05:42:27.192Z,33.96
2022-10-18T05:43:27.194Z,34.06
2022-10-18T05:44:27.193Z,34.06
2022-10-18T05:45:27.192Z,34.25
2022-10-18T05:46:27.193Z,34.35
2022-10-18T05:47:27.226Z,34.06
2022-10-18T05:48:27.195Z,34.25
2022-10-18T05:49:27.192Z,34.16
2022-10-18T05:50:27.193Z,34.16
2022-10-18T05:51:27.192Z,34.25
2022-10-18T05:52:27.193Z,34.16
2022-10-18T05:53:42.440Z,34.16
2022-10-18T05:54:27.214Z,34.25
2022-10-18T05:55:27.193Z,34.25
2022-10-18T05:56:27.226Z,34.25
2022-10-18T05:57:27.193Z,34.25
2022-10-18T05:58:27.192Z,33.96
2022-10-18T05:59:27.193Z,33.96
2022-10-18T06:00:27.279Z,33.96
2022-10-18T06:01:27.193Z,34.25
2022-10-18T06:02:27.228Z,34.16
2022-10-18T06:03:27.193Z,34.25
2022-10-18T06:04:27.193Z,34.25
2022-10-18T06:05:27.204Z,34.06
2022-10-18T06:06:27.193Z,34.06
2022-10-18T06:07:27.191Z,34.16
2022-10-18T06:08:27.194Z,33.96
2022-10-18T06:09:27.192Z,34.25
2022-10-18T06:10:27.214Z,33.86
2022-10-18T06:11:27.192Z,33.96
2022-10-18T06:12:27.195Z,34.25
2022-10-18T06:13:29.089Z,34.06
2022-10-18T06:14:27.192Z,33.96
2022-10-18T06:15:27.191Z,33.96
2022-10-18T06:16:32.039Z,33.96
2022-10-18T06:17:30.300Z,33.96
2022-10-18T06:18:27.197Z,33.76
2022-10-18T06:19:27.191Z,34.16
2022-10-18T06:20:27.193Z,34.06
2022-10-18T06:21:27.193Z,34.16
2022-10-18T06:22:27.192Z,34.06
2022-10-18T06:23:27.196Z,34.16
2022-10-18T06:24:27.192Z,34.06
2022-10-18T06:25:27.193Z,34.16
2022-10-18T06:26:27.217Z,34.06
2022-10-18T06:27:27.191Z,34.06
2022-10-18T06:28:27.236Z,33.76
2022-10-18T06:29:27.192Z,34.16
2022-10-18T06:30:27.193Z,34.35
2022-10-18T06:31:27.200Z,34.25
2022-10-18T06:32:27.193Z,33.86
2022-10-18T06:33:27.191Z,34.06
2022-10-18T06:34:27.193Z,33.96
2022-10-18T06:35:27.193Z,33.96
2022-10-18T06:36:27.192Z,34.06
2022-10-18T06:37:27.242Z,33.86
2022-10-18T06:38:27.196Z,33.86
2022-10-18T06:39:27.192Z,34.06
2022-10-18T06:40:27.192Z,34.06
2022-10-18T06:41:27.193Z,34.16
2022-10-18T06:42:27.214Z,34.16
2022-10-18T06:43:27.195Z,34.16
2022-10-18T06:44:27.195Z,34.25
2022-10-18T06:45:27.198Z,34.16
2022-10-18T06:46:27.192Z,34.16
2022-10-18T06:47:27.192Z,34.25
2022-10-18T06:48:27.192Z,34.16
2022-10-18T06:49:27.195Z,34.16
2022-10-18T06:50:27.191Z,34.25
2022-10-18T06:51:27.193Z,34.16
2022-10-18T06:52:27.191Z,34.35
2022-10-18T06:53:27.195Z,34.25
2022-10-18T06:54:27.192Z,34.25
2022-10-18T06:55:27.194Z,34.06
2022-10-18T06:56:27.193Z,34.25
2022-10-18T06:57:27.194Z,34.16
2022-10-18T06:58:27.213Z,34.35
2022-10-18T06:59:30.408Z,34.25
2022-10-18T07:00:27.204Z,34.16
2022-10-18T07:01:27.264Z,34.35
2022-10-18T07:02:27.194Z,34.35
2022-10-18T07:03:27.199Z,34.25
2022-10-18T07:04:27.193Z,34.35
2022-10-18T07:05:27.250Z,34.25
2022-10-18T07:06:27.197Z,34.25
2022-10-18T07:07:27.194Z,34.16
2022-10-18T07:08:27.192Z,34.25
2022-10-18T07:09:27.193Z,34.35
2022-10-18T07:10:27.194Z,34.35
2022-10-18T07:11:27.202Z,34.25
2022-10-18T07:12:27.193Z,34.35
2022-10-18T07:13:32.309Z,34.35
2022-10-18T07:14:29.117Z,34.16
2022-10-18T07:15:27.232Z,34.16
2022-10-18T07:16:27.194Z,34.25
2022-10-18T07:17:27.200Z,34.25
2022-10-18T07:18:27.198Z,34.06
2022-10-18T07:19:27.206Z,34.35
2022-10-18T07:20:27.195Z,34.25
2022-10-18T07:21:27.195Z,34.35
2022-10-18T07:22:30.293Z,34.44
2022-10-18T07:23:27.194Z,34.44
2022-10-18T07:24:27.256Z,34.16
2022-10-18T07:25:29.879Z,33.96
2022-10-18T07:26:27.224Z,34.06
2022-10-18T07:27:27.194Z,34.35
2022-10-18T07:28:27.249Z,34.25
2022-10-18T07:29:27.194Z,33.96
2022-10-18T07:30:27.213Z,33.96
2022-10-18T07:31:27.196Z,33.96
2022-10-18T07:32:27.193Z,34.35
2022-10-18T07:33:27.195Z,33.96
2022-10-18T07:34:27.193Z,34.35
2022-10-18T07:35:27.193Z,33.96
2022-10-18T07:36:27.196Z,33.96
2022-10-18T07:37:29.413Z,34.35
2022-10-18T07:38:27.193Z,34.06
2022-10-18T07:39:27.195Z,34.06
2022-10-18T07:40:27.193Z,34.35
2022-10-18T07:41:27.198Z,34.35
2022-10-18T07:42:27.194Z,34.06
2022-10-18T07:43:27.195Z,34.25
2022-10-18T07:44:27.195Z,34.25
2022-10-18T07:45:27.303Z,34.06
2022-10-18T07:46:27.216Z,34.06
2022-10-18T07:47:29.034Z,34.06
2022-10-18T07:48:27.195Z,34.16
2022-10-18T07:49:27.195Z,34.16
2022-10-18T07:50:27.193Z,34.06
2022-10-18T07:51:27.195Z,34.25
2022-10-18T07:52:27.195Z,34.25
2022-10-18T07:53:27.196Z,34.25
2022-10-18T07:54:27.194Z,34.25
2022-10-18T07:55:27.195Z,34.25
2022-10-18T07:56:27.194Z,34.44
2022-10-18T07:57:27.197Z,36.58
2022-10-18T07:58:27.195Z,36.68
2022-10-18T07:59:27.194Z,35.51
2022-10-18T08:00:27.196Z,35.03
2022-10-18T08:01:27.256Z,34.25
2022-10-18T08:02:27.217Z,34.16
2022-10-18T08:03:27.196Z,34.25
2022-10-18T08:04:27.194Z,34.06
2022-10-18T08:05:27.280Z,34.06
2022-10-18T08:06:27.194Z,34.16
2022-10-18T08:07:27.195Z,34.06
2022-10-18T08:08:27.196Z,34.25
2022-10-18T08:09:27.200Z,34.16
2022-10-18T08:10:27.195Z,34.16
2022-10-18T08:11:27.197Z,34.16
2022-10-18T08:12:27.194Z,34.06
2022-10-18T08:13:27.195Z,34.25
2022-10-18T08:14:27.277Z,34.16
2022-10-18T08:15:27.196Z,34.06
2022-10-18T08:16:27.219Z,34.17
2022-10-18T08:17:27.197Z,34.08
2022-10-18T08:18:27.231Z,34.16
2022-10-18T08:19:27.198Z,34.17
2022-10-18T08:20:30.722Z,34.16
2022-10-18T08:21:27.197Z,34.06
2022-10-18T08:22:27.194Z,34.06
2022-10-18T08:23:27.197Z,34.16
2022-10-18T08:24:27.261Z,34.06
2022-10-18T08:25:27.234Z,34.06
2022-10-18T08:26:27.194Z,34.06
2022-10-18T08:27:27.198Z,33.86
2022-10-18T08:28:27.240Z,33.86
2022-10-18T08:29:31.492Z,34.25
2022-10-18T08:30:27.195Z,33.96
2022-10-18T08:31:27.198Z,34.16
2022-10-18T08:32:27.198Z,33.96
2022-10-18T08:33:27.198Z,33.96
2022-10-18T08:34:27.322Z,33.96
2022-10-18T08:35:27.202Z,33.96
2022-10-18T08:36:27.196Z,34.25
2022-10-18T08:37:27.199Z,33.98
2022-10-18T08:38:27.196Z,34.06
2022-10-18T08:39:27.197Z,34.16
2022-10-18T08:40:27.198Z,34.25
2022-10-18T08:41:27.199Z,34.35
2022-10-18T08:42:27.203Z,34.35
2022-10-18T08:43:27.290Z,34.36
2022-10-18T08:44:27.205Z,34.25
2022-10-18T08:45:41.032Z,34.06
2022-10-18T08:46:27.197Z,34.16
2022-10-18T08:47:27.198Z,34.27
2022-10-18T08:48:27.199Z,34.35
2022-10-18T08:49:27.200Z,34.35
2022-10-18T08:50:27.219Z,34.64
2022-10-18T08:51:27.205Z,34.36
2022-10-18T08:52:27.262Z,34.44
2022-10-18T08:53:27.199Z,34.44
2022-10-18T08:54:27.196Z,34.35
2022-10-18T08:55:27.198Z,34.44
2022-10-18T08:56:27.199Z,34.44
2022-10-18T08:57:27.199Z,34.35
2022-10-18T08:58:27.199Z,34.44
2022-10-18T08:59:27.198Z,34.54
2022-10-18T09:00:27.199Z,34.93
2022-10-18T09:01:27.199Z,35.03
2022-10-18T09:02:27.200Z,34.83
2022-10-18T09:03:27.302Z,34.83
2022-10-18T09:04:27.206Z,34.93
2022-10-18T09:05:27.201Z,34.74
2022-10-18T09:06:27.223Z,34.44
2022-10-18T09:07:27.201Z,34.54
2022-10-18T09:08:27.198Z,34.74
2022-10-18T09:09:27.199Z,34.83
2022-10-18T09:10:27.197Z,34.64
2022-10-18T09:11:27.203Z,34.64
2022-10-18T09:12:27.200Z,34.74
2022-10-18T09:13:27.202Z,35.03
2022-10-18T09:14:27.200Z,34.64
2022-10-18T09:15:27.200Z,34.64
2022-10-18T09:16:27.199Z,35.03
2022-10-18T09:17:27.201Z,34.74
2022-10-18T09:18:27.199Z,35.13
2022-10-18T09:19:27.200Z,34.64
2022-10-18T09:20:27.198Z,34.44
2022-10-18T09:21:27.207Z,35.03
2022-10-18T09:22:27.225Z,34.44
2022-10-18T09:23:27.200Z,34.83
2022-10-18T09:24:27.202Z,34.93
2022-10-18T09:25:27.202Z,34.93
2022-10-18T09:26:27.199Z,34.74
2022-10-18T09:27:27.200Z,35.22
2022-10-18T09:28:27.253Z,35.03
2022-10-18T09:29:27.209Z,34.93
2022-10-18T09:30:27.200Z,35.03
2022-10-18T09:31:27.200Z,35.03
2022-10-18T09:32:27.200Z,34.74
2022-10-18T09:33:27.200Z,34.93
2022-10-18T09:34:27.202Z,35.03
2022-10-18T09:35:27.201Z,34.83
2022-10-18T09:36:27.201Z,34.93
2022-10-18T09:37:27.202Z,34.93
2022-10-18T09:38:27.231Z,34.93
2022-10-18T09:39:27.202Z,34.83
2022-10-18T09:40:27.201Z,35.03
2022-10-18T09:41:27.202Z,34.93
2022-10-18T09:42:27.201Z,34.74
2022-10-18T09:43:27.204Z,34.74
2022-10-18T09:44:27.200Z,34.83
2022-10-18T09:45:27.202Z,34.83
2022-10-18T09:46:27.201Z,34.93
2022-10-18T09:47:27.239Z,34.93
2022-10-18T09:48:27.200Z,34.74
2022-10-18T09:49:27.201Z,34.83
2022-10-18T09:50:27.256Z,34.64
2022-10-18T09:51:27.201Z,34.93
2022-10-18T09:52:27.200Z,34.93
2022-10-18T09:53:27.201Z,35.03
2022-10-18T09:54:27.222Z,34.83
2022-10-18T09:55:27.202Z,34.83
2022-10-18T09:56:27.201Z,34.93
2022-10-18T09:57:27.201Z,34.83
2022-10-18T09:58:27.200Z,34.83
2022-10-18T09:59:27.201Z,34.93
2022-10-18T10:00:27.200Z,34.83
2022-10-18T10:01:27.203Z,35.03
2022-10-18T10:02:27.253Z,34.93
2022-10-18T10:03:27.202Z,34.93
2022-10-18T10:04:27.201Z,34.93
2022-10-18T10:05:27.202Z,34.93
2022-10-18T10:06:27.202Z,34.93
2022-10-18T10:07:29.776Z,34.93
2022-10-18T10:08:27.202Z,34.93
2022-10-18T10:09:27.202Z,34.93
2022-10-18T10:10:27.221Z,34.93
2022-10-18T10:11:27.203Z,34.93
2022-10-18T10:12:27.202Z,34.93
2022-10-18T10:13:27.204Z,34.93
2022-10-18T10:14:27.205Z,34.93
2022-10-18T10:15:31.199Z,35.03
2022-10-18T10:16:27.201Z,34.83
2022-10-18T10:17:27.207Z,34.83
2022-10-18T10:18:27.203Z,34.93
2022-10-18T10:19:27.204Z,34.83
2022-10-18T10:20:27.203Z,34.83
2022-10-18T10:21:27.203Z,34.93
2022-10-18T10:22:27.205Z,34.95
2022-10-18T10:23:27.203Z,34.83
2022-10-18T10:24:30.328Z,35.22
2022-10-18T10:25:27.204Z,35.03
2022-10-18T10:26:27.224Z,35.03
2022-10-18T10:27:27.204Z,35.13
2022-10-18T10:28:27.268Z,35.32
2022-10-18T10:29:43.641Z,35.13
2022-10-18T10:30:27.202Z,35.32
2022-10-18T10:31:27.202Z,35.03
2022-10-18T10:33:27.204Z,35.13
2022-10-18T10:34:27.202Z,35.13
2022-10-18T10:35:41.452Z,35.13
2022-10-18T10:36:27.203Z,35.22
2022-10-18T10:37:27.204Z,35.22
2022-10-18T10:38:27.214Z,35.03
2022-10-18T10:39:27.204Z,35.13
2022-10-18T10:40:28.714Z,35.13
2022-10-18T10:41:27.221Z,35.03
2022-10-18T10:42:27.225Z,34.93
2022-10-18T10:43:42.019Z,35.22
2022-10-18T10:44:27.207Z,35.22
2022-10-18T10:45:27.205Z,35.22
2022-10-18T10:46:27.203Z,35.22
2022-10-18T10:47:27.208Z,35.32
2022-10-18T10:48:31.102Z,35.41
2022-10-18T10:49:39.624Z,35.71
2022-10-18T10:50:27.279Z,35.71
2022-10-18T10:51:27.205Z,35.51
2022-10-18T10:52:28.432Z,35.32
2022-10-18T10:53:27.207Z,35.03
2022-10-18T10:54:27.205Z,35.13
2022-10-18T10:55:35.617Z,35.51
2022-10-18T10:56:27.203Z,35.71
2022-10-18T10:57:27.205Z,35.51
2022-10-18T10:58:27.224Z,35.71
2022-10-18T10:59:27.205Z,35.13
2022-10-18T11:00:27.205Z,35.13
2022-10-18T11:01:27.205Z,35.61
2022-10-18T11:02:27.203Z,35.51
2022-10-18T11:03:29.845Z,35.41
2022-10-18T11:04:27.208Z,35.51
2022-10-18T11:05:27.216Z,35.51
2022-10-18T11:06:27.205Z,35.51
2022-10-18T11:07:27.205Z,35.41
2022-10-18T11:08:27.206Z,35.41
2022-10-18T11:09:27.206Z,35.51
2022-10-18T11:10:27.207Z,35.61
2022-10-18T11:11:27.209Z,35.41
2022-10-18T11:12:27.205Z,35.41
2022-10-18T11:13:27.205Z,35.51
2022-10-18T11:14:27.412Z,35.41
2022-10-18T11:15:27.206Z,35.51
2022-10-18T11:16:27.209Z,35.22
2022-10-18T11:17:27.209Z,35.41
2022-10-18T11:18:27.209Z,35.51
2022-10-18T11:19:28.475Z,35.32
2022-10-18T11:20:27.208Z,35.80
2022-10-18T11:21:27.207Z,35.41
2022-10-18T11:22:27.210Z,35.41
2022-10-18T11:23:27.205Z,35.41
2022-10-18T11:24:27.207Z,35.32
2022-10-18T11:25:27.209Z,35.32
2022-10-18T11:26:27.209Z,35.61
2022-10-18T11:27:27.206Z,35.41
2022-10-18T11:28:27.268Z,35.61
2022-10-18T11:29:27.207Z,35.51
2022-10-18T11:30:27.229Z,35.61
2022-10-18T11:31:27.207Z,35.61
2022-10-18T11:32:27.208Z,35.72
2022-10-18T11:33:50.152Z,36.00
2022-10-18T11:34:27.208Z,35.90
2022-10-18T11:35:27.210Z,35.90
2022-10-18T11:36:27.210Z,35.90
2022-10-18T11:37:31.088Z,36.00
2022-10-18T11:38:27.209Z,35.90
2022-10-18T11:39:27.206Z,35.90
2022-10-18T11:40:27.209Z,36.00
2022-10-18T11:41:27.208Z,35.51
2022-10-18T11:42:27.208Z,36.00
2022-10-18T11:43:30.507Z,35.80
2022-10-18T11:44:27.208Z,35.61
2022-10-18T11:45:27.276Z,35.61
2022-10-18T11:46:27.231Z,35.90
2022-10-18T11:47:27.209Z,35.63
2022-10-18T11:48:27.210Z,35.61
2022-10-18T11:49:27.208Z,35.61
2022-10-18T11:50:27.208Z,35.61
2022-10-18T11:51:33.979Z,35.71
2022-10-18T11:52:27.211Z,35.71
2022-10-18T11:53:27.208Z,35.61
2022-10-18T11:54:27.251Z,35.71
2022-10-18T11:55:30.344Z,35.71
2022-10-18T11:56:27.211Z,35.51
2022-10-18T11:57:27.215Z,35.51
2022-10-18T11:58:27.210Z,35.61
2022-10-18T11:59:27.208Z,35.71
2022-10-18T12:01:28.612Z,35.80
2022-10-18T12:02:27.245Z,35.41
2022-10-18T12:03:27.210Z,36.29
2022-10-18T12:04:27.211Z,36.40
2022-10-18T12:05:27.210Z,36.40
2022-10-18T12:06:27.210Z,36.89
2022-10-18T12:07:31.616Z,36.40
2022-10-18T12:08:27.214Z,35.82
2022-10-18T12:09:27.211Z,35.92
2022-10-18T12:10:39.256Z,35.72
2022-10-18T12:11:27.209Z,35.72
2022-10-18T12:12:27.211Z,35.92
2022-10-18T12:13:27.211Z,35.72
2022-10-18T12:14:27.211Z,35.82
2022-10-18T12:15:27.209Z,35.72
2022-10-18T12:16:49.595Z,35.72
2022-10-18T12:17:47.678Z,36.21
2022-10-18T12:18:27.239Z,35.82
2022-10-18T12:19:27.522Z,35.72
2022-10-18T12:20:27.212Z,35.82
2022-10-18T12:21:27.210Z,35.92
2022-10-18T12:22:27.213Z,35.92
2022-10-18T12:23:27.210Z,35.63
2022-10-18T12:24:27.213Z,36.02
2022-10-18T12:25:27.211Z,35.72
2022-10-18T12:26:27.213Z,35.72
2022-10-18T12:27:27.211Z,36.02
2022-10-18T12:28:27.336Z,35.82
2022-10-18T12:29:27.214Z,35.72
2022-10-18T12:30:27.217Z,35.82
2022-10-18T12:31:27.212Z,36.02
2022-10-18T12:32:27.217Z,35.82
2022-10-18T12:33:28.892Z,35.43
2022-10-18T12:34:27.239Z,35.63
2022-10-18T12:35:27.214Z,35.82
2022-10-18T12:36:27.214Z,35.72
2022-10-18T12:37:27.215Z,35.82
2022-10-18T12:38:27.216Z,35.72
2022-10-18T12:39:37.624Z,35.63
2022-10-18T12:40:27.215Z,35.72
2022-10-18T12:41:27.220Z,35.82
2022-10-18T12:42:27.215Z,35.53
2022-10-18T12:43:27.214Z,35.53
2022-10-18T12:44:27.216Z,36.02
2022-10-18T12:45:27.217Z,36.11
2022-10-18T12:46:27.247Z,36.02
2022-10-18T12:47:27.215Z,35.53
2022-10-18T12:48:27.216Z,35.63
2022-10-18T12:49:27.217Z,35.72
2022-10-18T12:50:27.240Z,35.53
2022-10-18T12:51:27.234Z,35.92
2022-10-18T12:52:27.217Z,35.92
2022-10-18T12:53:27.218Z,35.43
2022-10-18T12:54:27.219Z,35.43
2022-10-18T12:55:27.218Z,35.33
2022-10-18T12:56:27.220Z,35.43
2022-10-18T12:57:27.217Z,35.92
2022-10-18T12:58:27.218Z,35.63
2022-10-18T12:59:27.219Z,36.02
2022-10-18T13:00:27.220Z,35.53